Terminal Aerodrome Forecast
Issued by NWS San Angelo, TX

Current Version | Previous Version | Text Only | Print | Product List | Glossary Off
Versions: 1 2 3 4 5 6 7 8 9 10 11 12 13 14 15 16 17 18 19

000
FTUS44 KSJT 301044 AAB
TAFSJT
TAF AMD
KSJT 301044Z 3011/3106 07006KT P6SM BKN015
      TEMPO 3011/3013 5SM BR BKN005
     FM301600 07006KT P6SM BKN035
     FM301800 08008KT P6SM VCSH BKN060=

USA.gov is the U.S. government's official web portal to all federal, state and local government web resources and services.